Gillam Airport
CYGX : now visible

Airfield :











YOU CAN JOIN US ON...

 
LOGIN :

Register | Disclaimer

   EN    FR    IT 

 









Legend :    VFR   Marginal VFR   IFR   Intensive IFR   Very Intensive IFR
Visi :
Ceiling :
>= 8 km
>= 3000ft
5 to 8 km
1000 to 3000 ft
1500m to 5 km
500 to 1000 ft
800 to 1500m
200 to 500 ft
< 800m
< 200 ft
Symbols :   Thunderstorms  Fog  Heavy snow  Heavy precipitations  Wind > 20 kt






- Airport Elevation : 476 ft
- IATA code : YGX


CYGX - Gillam

CURRENT METAR :
  • 210300Z 23007KT 15SM SCT017 M02/M03 A2995 RMK SC3 SLP157

EXPIRED METARs :
  • 210241Z 23006KT 15SM SCT017 M01/M03 A2996 RMK SC3 SLP158
  • 210200Z 24008KT 15SM -SN SCT017 M01/M03 A2997 RMK SC4 SLP161

TAF TAF CYGX
Valid from the 21 at 01:00 until the 21 at 13:00 UTC


210038Z 2101/2113 27010KT P6SM BKN025
TEMPO 2101/2103 4SM -SN OVC020
FM210300 25008KT P6SM BKN020
TEMPO 2103/2111 SCT020
FM211100 25008KT P6SM FEW020 RMK NXT FCST BY 210700Z
CZWG FIR / North America



MET'MAP, your aeronautical weather chart ! - Copyright ORBIFLY December 2007 - Disclaimer

ORBIFLY MET'MAP TEAM :

Programming & Development : Alexandra Zaïnal
Concept & original design : Baudouin d'Aumeries
Assistance for programming : Marc-Olivier Méhu
Technical & hardware support : Manuel Goepfert

Contact : metmap@orbifly.com




SOURCES & CREDITS :

   NOAA       Earth
Advisory